Time;durP1;ratioP1;P1;durP2;ratioP2;P2;SDS_P1;SDS_P2;PMS_P1;PMS_P2;Temp;Humidity;BMP_temperature;BMP_pressure;BME280_temperature;BME280_humidity;BME280_pressure;Samples;Min_cycle;Max_cycle;Signal;HPM_P1;HPM_P2
2024/01/28 00:00:56;;;;;;;14.82;8.90;;;-0.10;99.90;;;;;;6101071;23;20107;-76
2024/01/28 00:03:22;;;;;;;17.50;9.57;;;-0.10;99.90;;;;;;6099979;23;20013;-76
2024/01/28 00:05:49;;;;;;;19.42;9.30;;;-0.10;99.90;;;;;;6101329;23;20010;-75
2024/01/28 00:08:15;;;;;;;16.45;9.07;;;-0.10;99.90;;;;;;6099312;23;20128;-76
2024/01/28 00:10:42;;;;;;;12.45;8.02;;;-0.10;99.90;;;;;;6100375;23;20013;-77
2024/01/28 00:13:08;;;;;;;31.23;23.13;;;-0.10;99.90;;;;;;6100756;23;20024;-75
2024/01/28 00:15:33;;;;;;;16.23;8.95;;;-0.10;99.90;;;;;;6125033;23;20014;-76
2024/01/28 00:17:59;;;;;;;18.10;9.23;;;-0.10;99.90;;;;;;6102886;23;20022;-76
2024/01/28 00:20:25;;;;;;;34.85;24.23;;;-0.10;99.90;;;;;;6101097;23;20015;-76
2024/01/28 00:22:50;;;;;;;36.95;25.65;;;-0.10;99.90;;;;;;6099477;23;20021;-76
2024/01/28 00:25:16;;;;;;;22.85;9.95;;;-0.10;99.90;;;;;;6099856;23;20053;-75
2024/01/28 00:27:42;;;;;;;16.70;8.02;;;-0.10;99.90;;;;;;6124814;23;20066;-76
2024/01/28 00:30:11;;;;;;;16.77;8.57;;;-0.10;99.90;;;;;;6100776;23;20024;-76
2024/01/28 00:32:37;;;;;;;32.80;24.65;;;-0.10;99.90;;;;;;6124919;23;20018;-76
2024/01/28 00:35:04;;;;;;;16.17;10.18;;;0.00;99.90;;;;;;6100380;23;20014;-76
2024/01/28 00:37:29;;;;;;;18.17;8.55;;;-0.10;99.90;;;;;;6100194;23;20024;-76
2024/01/28 00:39:55;;;;;;;37.33;24.63;;;-0.10;99.90;;;;;;6100071;23;20390;-76
2024/01/28 00:42:21;;;;;;;17.70;9.35;;;-0.10;99.90;;;;;;6099855;23;20482;-76
2024/01/28 00:44:46;;;;;;;19.23;8.73;;;-0.10;99.90;;;;;;6100720;23;20073;-75
2024/01/28 00:47:12;;;;;;;16.75;9.38;;;-0.20;99.90;;;;;;6101110;23;20014;-76
2024/01/28 00:49:38;;;;;;;19.58;8.25;;;-0.20;99.90;;;;;;6124446;23;20077;-76
2024/01/28 00:52:03;;;;;;;40.13;25.15;;;-0.30;99.90;;;;;;6125190;23;20313;-76
2024/01/28 00:54:29;;;;;;;14.88;8.77;;;-0.30;99.90;;;;;;6124359;23;20076;-76
2024/01/28 00:56:56;;;;;;;35.85;23.88;;;-0.40;99.90;;;;;;6100068;23;19998;-76
2024/01/28 00:59:22;;;;;;;21.20;8.77;;;-0.30;99.90;;;;;;6124993;23;20477;-76
2024/01/28 01:01:48;;;;;;;15.27;8.15;;;-0.30;99.90;;;;;;6098655;23;20017;-75
2024/01/28 01:04:13;;;;;;;22.85;8.20;;;-0.40;99.90;;;;;;6099024;23;20018;-76
2024/01/28 01:06:43;;;;;;;15.57;8.25;;;-0.40;99.90;;;;;;6099843;23;20108;-76
2024/01/28 01:09:08;;;;;;;20.17;10.25;;;-0.40;99.90;;;;;;6099695;23;20014;-76
2024/01/28 01:11:35;;;;;;;32.70;25.25;;;-0.40;99.90;;;;;;6124532;23;20006;-76
2024/01/28 01:14:01;;;;;;;21.13;9.32;;;-0.50;99.90;;;;;;6122774;23;20087;-76
2024/01/28 01:16:27;;;;;;;21.10;9.82;;;-0.50;99.90;;;;;;6124407;23;20021;-76
2024/01/28 01:18:53;;;;;;;40.72;29.73;;;-0.50;99.90;;;;;;6100263;23;20013;-76
2024/01/28 01:21:19;;;;;;;18.23;9.70;;;-0.50;99.90;;;;;;6098919;23;20010;-75
2024/01/28 01:23:45;;;;;;;19.67;9.52;;;-0.50;99.90;;;;;;6123745;23;20014;-76
2024/01/28 01:26:10;;;;;;;14.55;8.93;;;-0.60;99.90;;;;;;6100491;23;20083;-76
2024/01/28 01:28:36;;;;;;;22.13;10.27;;;-0.60;99.90;;;;;;6122815;23;20466;-76
2024/01/28 01:31:03;;;;;;;19.55;10.43;;;-0.60;99.90;;;;;;6123448;23;20081;-76
2024/01/28 01:33:29;;;;;;;23.65;10.00;;;-0.50;99.90;;;;;;6099748;23;20053;-76
2024/01/28 01:35:55;;;;;;;39.58;30.80;;;-0.60;99.90;;;;;;6099693;23;20477;-76
2024/01/28 01:38:21;;;;;;;20.35;11.77;;;-0.50;99.90;;;;;;6099236;23;20014;-76
2024/01/28 01:40:47;;;;;;;22.25;11.98;;;-0.50;99.90;;;;;;6099392;23;20009;-76
2024/01/28 01:43:13;;;;;;;24.73;12.60;;;-0.40;99.90;;;;;;6098705;23;20080;-76
2024/01/28 01:45:40;;;;;;;22.40;11.93;;;-0.40;99.90;;;;;;6099130;23;20371;-76
2024/01/28 01:48:16;;;;;;;43.13;33.53;;;-0.40;99.90;;;;;;6123121;23;20017;-76
2024/01/28 01:50:43;;;;;;;49.80;40.92;;;-0.30;99.90;;;;;;6099223;23;20021;-76
2024/01/28 01:53:09;;;;;;;25.38;13.52;;;-0.30;99.90;;;;;;6123609;23;20018;-76
2024/01/28 01:55:37;;;;;;;25.17;12.85;;;-0.20;99.90;;;;;;6098506;23;20021;-76
2024/01/28 01:58:04;;;;;;;25.98;14.20;;;-0.20;99.90;;;;;;6098752;23;20068;-76
2024/01/28 02:00:31;;;;;;;25.08;13.90;;;-0.20;99.90;;;;;;6098872;23;20022;-76
2024/01/28 02:02:57;;;;;;;24.25;13.98;;;-0.10;99.90;;;;;;6097700;23;20028;-76
2024/01/28 02:05:22;;;;;;;21.45;12.63;;;-0.10;99.90;;;;;;6098413;23;20046;-76
2024/01/28 02:07:49;;;;;;;26.00;13.18;;;0.00;99.90;;;;;;6099532;23;20014;-76
2024/01/28 02:10:15;;;;;;;26.70;14.75;;;0.00;99.90;;;;;;6099408;23;20010;-76
2024/01/28 02:12:45;;;;;;;25.17;13.30;;;0.00;99.90;;;;;;6122641;23;20321;-76
2024/01/28 02:15:11;;;;;;;44.17;35.90;;;0.00;99.90;;;;;;6098276;23;20410;-76
2024/01/28 02:17:37;;;;;;;43.80;36.20;;;0.00;99.90;;;;;;6125142;23;20049;-75
2024/01/28 02:20:04;;;;;;;22.05;13.90;;;0.00;99.90;;;;;;6124323;23;20018;-76
2024/01/28 02:22:29;;;;;;;47.40;39.67;;;0.00;99.90;;;;;;6099439;23;20018;-75
2024/01/28 02:24:57;;;;;;;26.15;14.50;;;0.00;99.90;;;;;;6122768;23;20014;-76
2024/01/28 02:27:23;;;;;;;27.83;13.77;;;0.00;99.90;;;;;;6098783;23;20436;-76
2024/01/28 02:29:48;;;;;;;19.20;13.45;;;0.00;99.90;;;;;;6098205;23;20017;-76
2024/01/28 02:32:16;;;;;;;45.13;36.45;;;0.00;99.90;;;;;;6099441;23;20320;-76
2024/01/28 02:34:42;;;;;;;38.83;32.25;;;0.00;99.90;;;;;;6098954;23;20018;-76
2024/01/28 02:37:09;;;;;;;32.38;15.38;;;0.00;99.90;;;;;;6122928;23;20014;-76
2024/01/28 02:39:35;;;;;;;23.95;13.35;;;0.00;99.90;;;;;;6123195;23;20089;-76
2024/01/28 02:42:01;;;;;;;28.50;13.82;;;0.00;99.90;;;;;;6098571;23;20018;-76
2024/01/28 02:44:26;;;;;;;45.80;35.50;;;0.00;99.90;;;;;;6097340;23;20011;-76
2024/01/28 02:46:53;;;;;;;25.70;14.40;;;0.00;99.90;;;;;;6099052;23;20010;-76
2024/01/28 02:49:21;;;;;;;25.92;12.70;;;0.00;99.90;;;;;;6124500;23;20015;-76
2024/01/28 02:51:47;;;;;;;21.38;13.63;;;0.00;99.90;;;;;;6099813;23;20435;-76
2024/01/28 02:54:13;;;;;;;40.03;34.90;;;0.00;99.90;;;;;;6124034;23;20073;-77
2024/01/28 02:56:38;;;;;;;42.47;36.67;;;0.00;99.90;;;;;;6126740;23;20013;-76
2024/01/28 02:59:04;;;;;;;21.83;13.20;;;0.00;99.90;;;;;;6101663;23;20442;-76
2024/01/28 03:01:30;;;;;;;40.47;34.22;;;0.00;99.90;;;;;;6101079;23;20024;-76
2024/01/28 03:03:56;;;;;;;24.75;13.35;;;0.00;99.90;;;;;;6099710;23;20093;-76
2024/01/28 03:06:21;;;;;;;26.08;13.48;;;0.00;99.90;;;;;;6101726;23;20017;-75
2024/01/28 03:08:47;;;;;;;23.38;12.07;;;-0.10;99.90;;;;;;6100905;23;20460;-75
2024/01/28 03:11:13;;;;;;;35.05;27.35;;;-0.10;99.90;;;;;;6125070;23;20355;-76
2024/01/28 03:13:38;;;;;;;23.75;12.73;;;-0.10;99.90;;;;;;6124722;23;20018;-76
2024/01/28 03:16:04;;;;;;;34.50;26.17;;;0.00;99.90;;;;;;6125586;23;20014;-76
2024/01/28 03:18:30;;;;;;;40.35;29.98;;;0.00;99.90;;;;;;6102057;23;20033;-75
2024/01/28 03:20:56;;;;;;;25.77;12.50;;;0.00;99.90;;;;;;6125839;23;20053;-76
2024/01/28 03:23:22;;;;;;;21.67;11.85;;;0.00;99.90;;;;;;6126776;23;20013;-76
2024/01/28 03:25:50;;;;;;;22.55;10.75;;;0.00;99.90;;;;;;6099788;23;20292;-76
2024/01/28 03:28:15;;;;;;;23.65;11.88;;;0.10;99.90;;;;;;6127804;23;20010;-76
2024/01/28 03:30:41;;;;;;;31.63;25.67;;;0.10;99.90;;;;;;6125420;23;20321;-76
2024/01/28 03:33:07;;;;;;;34.33;24.42;;;0.10;99.90;;;;;;6100463;23;20454;-76
2024/01/28 03:35:32;;;;;;;18.08;10.70;;;0.10;99.90;;;;;;6100280;23;20018;-75
2024/01/28 03:37:59;;;;;;;19.58;11.07;;;0.20;99.90;;;;;;6125547;23;20025;-76
2024/01/28 03:40:26;;;;;;;19.73;10.35;;;0.20;99.90;;;;;;6126035;23;20040;-76
2024/01/28 03:42:52;;;;;;;14.93;10.00;;;0.20;99.90;;;;;;6124783;23;20014;-78
2024/01/28 03:45:18;;;;;;;32.85;22.95;;;0.20;99.90;;;;;;6124352;23;20395;-76
2024/01/28 03:47:43;;;;;;;17.27;10.13;;;0.20;99.90;;;;;;6100253;23;20010;-76
2024/01/28 03:50:10;;;;;;;20.52;11.18;;;0.20;99.90;;;;;;6101275;23;20032;-76
2024/01/28 03:52:35;;;;;;;28.13;9.93;;;0.20;99.90;;;;;;6100725;23;20010;-76
2024/01/28 03:55:01;;;;;;;18.55;10.80;;;0.10;99.90;;;;;;6125167;23;20012;-76
2024/01/28 03:57:27;;;;;;;34.42;25.98;;;0.10;99.90;;;;;;6099497;23;20459;-76
2024/01/28 03:59:53;;;;;;;34.05;27.42;;;0.10;99.90;;;;;;6101935;23;20006;-76
2024/01/28 04:02:18;;;;;;;34.63;26.90;;;0.10;99.90;;;;;;6100054;23;20141;-76
2024/01/28 04:04:47;;;;;;;19.58;10.88;;;0.00;99.90;;;;;;6099836;23;20496;-76
2024/01/28 04:07:13;;;;;;;22.00;10.20;;;0.00;99.90;;;;;;6099749;23;20078;-76
2024/01/28 04:09:39;;;;;;;19.75;9.88;;;-0.10;99.90;;;;;;6098910;23;20041;-76
2024/01/28 04:12:05;;;;;;;21.50;11.32;;;-0.10;99.90;;;;;;6124087;23;20017;-76
2024/01/28 04:14:30;;;;;;;20.05;11.43;;;-0.10;99.90;;;;;;6098523;23;20049;-76
2024/01/28 04:16:57;;;;;;;25.15;10.50;;;-0.20;99.90;;;;;;6125026;23;20508;-76
2024/01/28 04:19:23;;;;;;;27.08;12.50;;;-0.20;99.90;;;;;;6100849;23;20474;-76
2024/01/28 04:21:48;;;;;;;33.08;25.45;;;-0.20;99.90;;;;;;6099242;23;20018;-76
2024/01/28 04:24:14;;;;;;;23.45;11.73;;;-0.20;99.90;;;;;;6098538;23;20018;-76
2024/01/28 04:26:40;;;;;;;17.75;10.57;;;-0.20;99.90;;;;;;6101095;23;20352;-76
2024/01/28 04:29:06;;;;;;;27.15;11.50;;;-0.20;99.90;;;;;;6100769;23;20509;-76
2024/01/28 04:31:31;;;;;;;23.25;11.02;;;-0.20;99.90;;;;;;6101252;23;20048;-76
2024/01/28 04:34:00;;;;;;;34.38;27.27;;;-0.20;99.90;;;;;;6099943;23;20014;-76
2024/01/28 04:36:29;;;;;;;22.02;11.88;;;-0.20;99.90;;;;;;6125077;23;20073;-76
2024/01/28 04:38:54;;;;;;;18.45;10.05;;;-0.20;99.90;;;;;;6100647;23;20145;-75
2024/01/28 04:41:20;;;;;;;20.45;11.32;;;-0.30;99.90;;;;;;6100579;23;20013;-75
2024/01/28 04:43:45;;;;;;;17.08;11.35;;;-0.30;99.90;;;;;;6124952;23;20422;-76
2024/01/28 04:46:16;;;;;;;37.47;29.23;;;-0.30;99.90;;;;;;6099814;23;20009;-76
2024/01/28 04:48:42;;;;;;;37.15;27.40;;;-0.30;99.90;;;;;;6100616;23;20014;-75
2024/01/28 04:51:07;;;;;;;20.35;11.80;;;-0.30;99.90;;;;;;6126623;23;20028;-75
2024/01/28 04:53:33;;;;;;;21.23;11.50;;;-0.30;99.90;;;;;;6100329;23;20025;-76
2024/01/28 04:55:59;;;;;;;25.63;12.27;;;-0.40;99.90;;;;;;6125114;23;20013;-76
2024/01/28 04:58:24;;;;;;;17.13;10.65;;;-0.40;99.90;;;;;;6098966;23;20020;-76
2024/01/28 05:00:50;;;;;;;34.70;27.23;;;-0.40;99.90;;;;;;6122201;23;20462;-76
2024/01/28 05:03:16;;;;;;;22.40;12.10;;;-0.40;99.90;;;;;;6122021;23;20029;-75
2024/01/28 05:05:42;;;;;;;21.83;10.73;;;-0.40;99.90;;;;;;6123657;23;20042;-76
2024/01/28 05:08:09;;;;;;;34.38;27.83;;;-0.40;99.90;;;;;;6098657;23;20021;-76
2024/01/28 05:10:34;;;;;;;24.95;11.88;;;-0.50;99.90;;;;;;6101254;23;20010;-75
2024/01/28 05:13:00;;;;;;;24.02;11.45;;;-0.50;99.90;;;;;;6123506;23;20324;-76
2024/01/28 05:15:26;;;;;;;25.13;11.63;;;-0.50;99.90;;;;;;6124078;23;20017;-76
2024/01/28 05:17:52;;;;;;;18.55;10.73;;;-0.60;99.90;;;;;;6098465;23;20443;-76
2024/01/28 05:20:18;;;;;;;16.98;10.30;;;-0.60;99.90;;;;;;6098675;23;20018;-76
2024/01/28 05:22:43;;;;;;;25.17;11.07;;;-0.70;99.90;;;;;;6099502;23;20010;-76
2024/01/28 05:25:09;;;;;;;17.20;9.93;;;-0.70;99.90;;;;;;6099160;23;20013;-76
2024/01/28 05:27:37;;;;;;;23.52;10.65;;;-0.70;99.90;;;;;;6098802;23;20017;-76
2024/01/28 05:30:03;;;;;;;18.40;10.77;;;-0.60;99.90;;;;;;6123577;23;20339;-76
2024/01/28 05:32:29;;;;;;;20.25;10.50;;;-0.70;99.90;;;;;;6099847;23;20010;-76
2024/01/28 05:35:02;;;;;;;19.33;11.32;;;-0.80;99.90;;;;;;6122826;23;20077;-76
2024/01/28 05:37:29;;;;;;;31.88;28.27;;;-0.80;99.90;;;;;;6123881;23;20070;-76
2024/01/28 05:39:56;;;;;;;15.98;10.20;;;-0.80;99.90;;;;;;6098866;23;20367;-76
2024/01/28 05:42:22;;;;;;;16.10;9.88;;;-0.90;99.90;;;;;;6124151;23;20021;-76
2024/01/28 05:44:48;;;;;;;17.33;9.27;;;-0.90;99.90;;;;;;6099313;23;20010;-76
2024/01/28 05:47:13;;;;;;;22.88;11.18;;;-0.90;99.90;;;;;;6123894;23;20037;-76
2024/01/28 05:49:39;;;;;;;29.27;25.83;;;-0.90;99.90;;;;;;6100317;23;20010;-76
2024/01/28 05:52:06;;;;;;;21.70;11.75;;;-0.90;99.90;;;;;;6098497;23;20006;-76
2024/01/28 05:54:32;;;;;;;19.20;10.65;;;-0.90;99.90;;;;;;6124049;23;20443;-76
2024/01/28 05:56:58;;;;;;;20.63;10.90;;;-0.90;99.90;;;;;;6098678;23;20021;-76
2024/01/28 05:59:23;;;;;;;42.55;31.63;;;-0.90;99.90;;;;;;6098687;23;20347;-76
2024/01/28 06:01:49;;;;;;;21.77;11.15;;;-0.90;99.90;;;;;;6122577;23;20014;-76
2024/01/28 06:04:15;;;;;;;18.15;9.88;;;-1.00;99.90;;;;;;6098068;23;20018;-76
2024/01/28 06:06:42;;;;;;;18.92;9.57;;;-1.00;99.90;;;;;;6100636;23;20085;-76
2024/01/28 06:09:09;;;;;;;20.45;9.85;;;-1.10;99.90;;;;;;6123974;23;20010;-76
2024/01/28 06:11:36;;;;;;;19.38;10.35;;;-1.10;99.90;;;;;;6098855;23;20321;-76
2024/01/28 06:14:02;;;;;;;13.02;9.02;;;-1.10;99.90;;;;;;6100835;23;20014;-76
2024/01/28 06:16:27;;;;;;;20.90;11.85;;;-1.10;99.90;;;;;;6099489;23;20084;-75
2024/01/28 06:18:53;;;;;;;15.77;9.80;;;-1.20;99.90;;;;;;6123707;23;20455;-76
2024/01/28 06:21:19;;;;;;;24.02;11.15;;;-1.20;99.90;;;;;;6098496;23;20459;-76
2024/01/28 06:23:45;;;;;;;18.52;10.30;;;-1.20;99.90;;;;;;6099819;23;20014;-75
2024/01/28 06:26:11;;;;;;;16.83;9.85;;;-1.30;99.90;;;;;;6098546;23;20013;-76
2024/01/28 06:28:36;;;;;;;31.45;28.02;;;-1.20;99.90;;;;;;6124688;23;20092;-75
2024/01/28 06:31:02;;;;;;;17.23;10.40;;;-1.30;99.90;;;;;;6101666;23;20021;-76
2024/01/28 06:33:28;;;;;;;20.75;10.77;;;-1.30;99.90;;;;;;6100578;23;20014;-76
2024/01/28 06:35:54;;;;;;;15.50;9.88;;;-1.30;99.90;;;;;;6127327;23;20018;-75
2024/01/28 06:38:19;;;;;;;21.55;9.95;;;-1.40;99.90;;;;;;6100192;23;20031;-75
2024/01/28 06:40:45;;;;;;;16.73;9.60;;;-1.40;99.90;;;;;;6100244;23;20010;-75
2024/01/28 06:43:11;;;;;;;14.38;9.02;;;-1.40;99.90;;;;;;6124746;23;20339;-75
2024/01/28 06:45:36;;;;;;;16.58;10.73;;;-1.50;99.90;;;;;;6125026;23;20387;-75
2024/01/28 06:48:02;;;;;;;17.00;10.32;;;-1.40;99.90;;;;;;6101775;23;20032;-76
2024/01/28 06:50:28;;;;;;;21.25;10.23;;;-1.50;99.90;;;;;;6100589;23;20028;-76
2024/01/28 06:52:53;;;;;;;20.52;10.75;;;-1.50;99.90;;;;;;6100556;23;20018;-75
2024/01/28 06:55:22;;;;;;;16.75;11.20;;;-1.50;99.90;;;;;;6100652;23;20014;-76
2024/01/28 06:57:48;;;;;;;16.52;10.32;;;-1.50;99.90;;;;;;6125393;23;20073;-76
2024/01/28 07:00:14;;;;;;;13.27;9.95;;;-1.50;99.90;;;;;;6099808;23;20507;-75
2024/01/28 07:02:40;;;;;;;18.80;10.85;;;-1.50;99.90;;;;;;6125423;23;20321;-76
2024/01/28 07:05:07;;;;;;;21.38;11.18;;;-1.50;99.90;;;;;;6100524;23;20021;-76
2024/01/28 07:07:33;;;;;;;16.17;10.40;;;-1.50;99.90;;;;;;6100958;23;20148;-76
2024/01/28 07:09:58;;;;;;;14.05;9.32;;;-1.50;99.90;;;;;;6100305;23;20447;-75
2024/01/28 07:12:24;;;;;;;20.70;9.52;;;-1.50;99.90;;;;;;6124418;23;20042;-76
2024/01/28 07:14:49;;;;;;;20.52;10.38;;;-1.50;99.90;;;;;;6127436;23;20443;-75
2024/01/28 07:17:15;;;;;;;15.75;10.40;;;-1.50;99.90;;;;;;6100512;23;20025;-75
2024/01/28 07:19:41;;;;;;;16.60;9.63;;;-1.50;99.90;;;;;;6125367;23;20444;-75
2024/01/28 07:22:07;;;;;;;17.75;11.13;;;-1.50;99.90;;;;;;6101673;23;20136;-76
2024/01/28 07:24:33;;;;;;;19.70;10.70;;;-1.50;99.90;;;;;;6099722;23;20420;-76
2024/01/28 07:26:58;;;;;;;16.98;10.20;;;-1.40;99.90;;;;;;6100045;23;20050;-76
2024/01/28 07:29:24;;;;;;;20.23;10.68;;;-1.40;99.90;;;;;;6099632;23;20415;-76
2024/01/28 07:31:51;;;;;;;18.67;11.48;;;-1.40;99.90;;;;;;6101300;23;20455;-76
2024/01/28 07:34:19;;;;;;;19.55;10.88;;;-1.40;99.90;;;;;;6099223;23;20021;-75
2024/01/28 07:36:47;;;;;;;17.10;9.82;;;-1.30;99.90;;;;;;6099245;23;20017;-76
2024/01/28 07:39:14;;;;;;;22.40;10.95;;;-1.40;99.90;;;;;;6123269;23;20020;-75
2024/01/28 07:41:41;;;;;;;15.50;10.60;;;-1.30;99.90;;;;;;6100009;23;20046;-74
2024/01/28 07:44:08;;;;;;;22.90;11.88;;;-1.20;99.90;;;;;;6124837;23;20097;-76
2024/01/28 07:46:39;;;;;;;16.42;9.80;;;-1.20;99.90;;;;;;6123794;23;20457;-76
2024/01/28 07:49:05;;;;;;;14.40;9.63;;;-1.10;99.90;;;;;;6099115;23;20093;-76
2024/01/28 07:51:30;;;;;;;20.38;10.63;;;-1.00;99.90;;;;;;6099711;23;20053;-76
2024/01/28 07:53:56;;;;;;;16.38;9.43;;;-0.90;99.90;;;;;;6099670;23;20022;-74
2024/01/28 07:56:22;;;;;;;16.20;8.73;;;-0.80;99.90;;;;;;6098927;23;20018;-76
2024/01/28 07:58:47;;;;;;;18.08;8.98;;;-0.80;99.90;;;;;;6099310;23;20016;-76
2024/01/28 08:01:13;;;;;;;14.32;8.55;;;-0.70;99.90;;;;;;6099175;23;20014;-77
2024/01/28 08:03:38;;;;;;;13.48;8.35;;;-0.70;99.90;;;;;;6124182;23;20010;-78
2024/01/28 08:06:04;;;;;;;15.00;8.65;;;-0.70;99.90;;;;;;6099684;23;20017;-76
2024/01/28 08:08:31;;;;;;;13.30;8.88;;;-0.60;99.90;;;;;;6099677;23;20014;-78
2024/01/28 08:10:57;;;;;;;16.63;8.23;;;-0.60;99.90;;;;;;6100078;23;20447;-77
2024/01/28 08:13:23;;;;;;;18.30;8.15;;;-0.50;99.90;;;;;;6123474;23;20022;-76
2024/01/28 08:15:48;;;;;;;17.48;8.27;;;-0.50;99.90;;;;;;6099794;23;20010;-76
2024/01/28 08:18:14;;;;;;;15.32;7.63;;;-0.50;99.90;;;;;;6099731;23;20018;-76
2024/01/28 08:20:40;;;;;;;19.38;14.98;;;-0.40;99.90;;;;;;6100836;23;20068;-76
2024/01/28 08:23:06;;;;;;;15.05;8.45;;;-0.30;99.90;;;;;;6123870;23;20018;-76
2024/01/28 08:25:31;;;;;;;12.77;7.47;;;-0.30;99.90;;;;;;6126023;23;20010;-77
2024/01/28 08:27:57;;;;;;;21.48;8.30;;;-0.30;99.90;;;;;;6097992;23;20133;-75
2024/01/28 08:30:23;;;;;;;15.07;8.38;;;-0.30;99.90;;;;;;6122360;23;20014;-74
2024/01/28 08:32:49;;;;;;;14.02;8.20;;;-0.20;99.90;;;;;;6122223;23;20010;-77
2024/01/28 08:35:16;;;;;;;15.88;7.32;;;-0.20;99.90;;;;;;6121863;23;20440;-76
2024/01/28 08:37:42;;;;;;;20.42;16.95;;;-0.10;99.90;;;;;;6095945;23;20013;-75
2024/01/28 08:40:08;;;;;;;15.52;8.00;;;0.00;99.90;;;;;;6095340;23;20006;-75
2024/01/28 08:42:34;;;;;;;14.82;7.55;;;0.00;99.90;;;;;;6119524;23;20010;-76
2024/01/28 08:45:00;;;;;;;13.48;7.40;;;0.10;99.90;;;;;;6094868;23;20014;-76
2024/01/28 08:47:25;;;;;;;18.30;8.25;;;0.10;99.90;;;;;;6095861;23;20028;-76
2024/01/28 08:49:51;;;;;;;13.80;7.32;;;0.20;99.90;;;;;;6095906;23;20010;-76
2024/01/28 08:52:17;;;;;;;13.30;7.55;;;0.20;99.90;;;;;;6122733;23;20046;-76
2024/01/28 08:54:46;;;;;;;21.17;14.65;;;0.20;99.90;;;;;;6121389;23;20049;-76
2024/01/28 08:57:12;;;;;;;19.63;14.77;;;0.20;99.90;;;;;;6097604;23;20355;-76
2024/01/28 08:59:38;;;;;;;15.32;6.97;;;0.30;99.90;;;;;;6098098;23;20014;-76
2024/01/28 09:02:03;;;;;;;14.98;6.88;;;0.40;99.90;;;;;;6122475;23;20048;-76
2024/01/28 09:04:29;;;;;;;8.73;6.95;;;0.40;99.90;;;;;;6121783;23;20104;-76
2024/01/28 09:06:55;;;;;;;14.02;6.78;;;0.40;99.90;;;;;;6122685;23;20379;-76
2024/01/28 09:09:21;;;;;;;21.17;17.35;;;0.50;99.90;;;;;;6122036;23;20010;-76
2024/01/28 09:11:47;;;;;;;19.67;14.65;;;0.50;99.90;;;;;;6121705;23;20021;-76
2024/01/28 09:14:13;;;;;;;18.15;14.82;;;0.60;99.90;;;;;;6097084;23;20013;-77
2024/01/28 09:16:38;;;;;;;20.25;14.90;;;0.70;99.90;;;;;;6097032;23;20025;-77
2024/01/28 09:19:04;;;;;;;17.08;8.38;;;0.70;99.90;;;;;;6097645;23;20018;-75
2024/01/28 09:21:30;;;;;;;11.95;7.55;;;0.70;99.90;;;;;;6097918;23;20014;-75
2024/01/28 09:23:57;;;;;;;12.82;7.70;;;0.80;99.90;;;;;;6121456;23;20037;-76
2024/01/28 09:26:22;;;;;;;14.95;7.78;;;0.80;99.90;;;;;;6121684;23;20445;-75
2024/01/28 09:28:48;;;;;;;11.50;6.53;;;0.90;99.90;;;;;;6056145;23;1032713;-75
2024/01/28 09:31:13;;;;;;;16.25;12.52;;;1.00;99.90;;;;;;6098102;23;20017;-75
2024/01/28 09:33:39;;;;;;;15.45;12.60;;;1.10;99.90;;;;;;6097552;23;20014;-75
2024/01/28 09:36:05;;;;;;;17.85;12.45;;;1.20;99.90;;;;;;6097914;23;20097;-75
2024/01/28 09:38:31;;;;;;;16.80;11.18;;;1.40;99.90;;;;;;6098457;23;20018;-75
2024/01/28 09:41:04;;;;;;;16.15;7.22;;;1.60;99.90;;;;;;6122806;23;20021;-76
2024/01/28 09:43:30;;;;;;;10.00;6.55;;;1.70;99.90;;;;;;6098413;23;20091;-76
2024/01/28 09:45:59;;;;;;;15.75;10.65;;;1.70;99.90;;;;;;6123921;23;20077;-78
2024/01/28 09:48:26;;;;;;;17.58;12.43;;;1.80;99.90;;;;;;6098531;23;20016;-78
2024/01/28 09:50:52;;;;;;;17.25;9.43;;;1.90;99.90;;;;;;6098260;23;20021;-77
2024/01/28 09:53:17;;;;;;;17.80;13.48;;;2.00;99.90;;;;;;6122580;23;20010;-78
2024/01/28 09:55:43;;;;;;;15.05;9.82;;;2.10;99.90;;;;;;6098044;23;20108;-77
2024/01/28 09:58:09;;;;;;;12.90;10.00;;;2.20;99.90;;;;;;6097841;23;20018;-79
2024/01/28 10:00:37;;;;;;;13.77;9.60;;;2.30;99.90;;;;;;6098418;23;20021;-78
2024/01/28 10:03:05;;;;;;;11.27;8.90;;;2.40;99.90;;;;;;6120671;23;20010;-79
2024/01/28 10:05:34;;;;;;;13.10;8.60;;;2.50;99.90;;;;;;6096195;23;20014;-78
2024/01/28 10:08:04;;;;;;;12.60;8.20;;;2.70;99.90;;;;;;6097021;23;20014;-78
2024/01/28 10:10:35;;;;;;;14.20;9.18;;;2.80;99.90;;;;;;6097012;23;20055;-78
2024/01/28 10:13:02;;;;;;;11.35;7.72;;;2.90;99.90;;;;;;6122738;23;20021;-78
2024/01/28 10:15:33;;;;;;;13.80;8.48;;;3.00;99.90;;;;;;6098136;23;20025;-78
2024/01/28 10:17:59;;;;;;;12.05;7.60;;;3.10;99.90;;;;;;6123437;23;20076;-78
2024/01/28 10:20:36;;;;;;;10.82;7.32;;;3.00;99.90;;;;;;6124484;23;20451;-78
2024/01/28 10:23:06;;;;;;;11.38;7.40;;;3.00;99.90;;;;;;6099956;23;20022;-78
2024/01/28 10:25:35;;;;;;;11.38;7.00;;;3.00;99.90;;;;;;6100221;23;20467;-78
2024/01/28 10:28:03;;;;;;;10.30;6.95;;;3.10;99.90;;;;;;6098606;23;20014;-78
2024/01/28 10:30:33;;;;;;;10.48;7.03;;;3.20;99.90;;;;;;6099488;23;20014;-78
2024/01/28 10:33:01;;;;;;;9.68;6.90;;;3.20;99.90;;;;;;6098730;23;20061;-78
2024/01/28 10:35:28;;;;;;;10.98;6.90;;;3.20;99.90;;;;;;6099364;23;20099;-78
2024/01/28 10:37:55;;;;;;;9.93;6.63;;;3.30;99.90;;;;;;6123198;23;20014;-78
2024/01/28 10:40:27;;;;;;;12.40;7.55;;;3.40;99.90;;;;;;6124291;23;20025;-78
2024/01/28 10:42:57;;;;;;;10.82;6.65;;;3.50;99.90;;;;;;6099148;23;20100;-78
2024/01/28 10:45:32;;;;;;;10.45;6.88;;;3.60;99.90;;;;;;6098866;23;20018;-78
2024/01/28 10:48:05;;;;;;;10.65;6.78;;;3.80;99.90;;;;;;6098916;23;20438;-78
2024/01/28 10:50:35;;;;;;;10.57;6.30;;;4.00;99.90;;;;;;6099890;23;20044;-78
2024/01/28 10:53:03;;;;;;;9.35;6.18;;;4.10;99.90;;;;;;6099946;23;20024;-78
2024/01/28 10:55:30;;;;;;;11.55;6.80;;;4.20;99.90;;;;;;6100021;23;20017;-78
2024/01/28 10:57:56;;;;;;;8.93;6.53;;;4.40;99.90;;;;;;6098563;23;20014;-78
2024/01/28 11:00:24;;;;;;;9.07;6.20;;;4.60;99.90;;;;;;6098425;23;20014;-78
2024/01/28 11:02:52;;;;;;;9.18;5.82;;;4.80;99.90;;;;;;6098035;23;20077;-78
2024/01/28 11:05:18;;;;;;;10.80;6.80;;;4.90;99.90;;;;;;6123059;23;20100;-78
2024/01/28 11:07:44;;;;;;;7.72;5.60;;;4.90;99.90;;;;;;6098830;23;20320;-78
2024/01/28 11:10:19;;;;;;;9.18;5.50;;;4.90;99.90;;;;;;6122830;23;20010;-78
2024/01/28 11:12:48;;;;;;;9.77;6.32;;;4.90;99.90;;;;;;6097819;23;20010;-78
2024/01/28 11:15:16;;;;;;;9.13;5.82;;;4.90;99.90;;;;;;6122950;23;20014;-78
2024/01/28 11:17:42;;;;;;;9.90;6.10;;;4.90;99.90;;;;;;6124363;23;20014;-78
2024/01/28 11:20:16;;;;;;;9.10;5.57;;;5.00;99.90;;;;;;6124702;23;20404;-78
2024/01/28 11:22:55;;;;;;;10.20;5.55;;;5.10;99.90;;;;;;6100245;23;20069;-78
2024/01/28 11:25:24;;;;;;;9.73;6.40;;;5.20;99.90;;;;;;6124597;23;20042;-78
2024/01/28 11:27:51;;;;;;;9.55;5.55;;;5.30;99.90;;;;;;6099495;23;20071;-78
2024/01/28 11:30:28;;;;;;;10.40;5.90;;;5.40;99.90;;;;;;6100407;23;20013;-78
2024/01/28 11:33:11;;;;;;;8.93;5.07;;;5.50;99.90;;;;;;6100308;23;20072;-78
2024/01/28 11:35:37;;;;;;;7.40;5.28;;;5.60;99.90;;;;;;6100020;23;20014;-78
2024/01/28 11:38:06;;;;;;;8.45;5.38;;;5.90;99.90;;;;;;6099163;23;20145;-78
2024/01/28 11:40:41;;;;;;;8.50;5.30;;;6.20;99.90;;;;;;6124579;23;20597;-78
2024/01/28 11:43:08;;;;;;;12.50;5.60;;;6.50;99.90;;;;;;6099624;23;20456;-78
2024/01/28 11:45:37;;;;;;;7.80;4.72;;;6.90;99.90;;;;;;6101335;23;20089;-76
2024/01/28 11:48:11;;;;;;;7.25;5.03;;;7.20;99.90;;;;;;6101422;23;20021;-76
2024/01/28 11:50:38;;;;;;;9.68;5.22;;;7.80;99.90;;;;;;6125506;23;20089;-77
2024/01/28 11:53:08;;;;;;;8.98;4.95;;;8.30;99.90;;;;;;6102567;23;20024;-77
2024/01/28 11:55:38;;;;;;;8.10;5.22;;;8.90;99.90;;;;;;6125516;23;20024;-77
2024/01/28 11:58:04;;;;;;;8.45;5.25;;;9.50;99.90;;;;;;6125754;23;20024;-77
2024/01/28 12:00:31;;;;;;;7.88;4.70;;;10.00;99.90;;;;;;6125919;23;20435;-77
2024/01/28 12:03:15;;;;;;;6.40;4.10;;;10.30;99.90;;;;;;6100030;23;20018;-76
2024/01/28 12:05:41;;;;;;;6.57;4.47;;;10.50;99.90;;;;;;6102750;23;20013;-80
2024/01/28 12:08:11;;;;;;;7.18;4.68;;;10.70;99.90;;;;;;6102003;23;20105;-77
2024/01/28 12:10:37;;;;;;;7.13;4.63;;;10.70;99.90;;;;;;6100809;23;20014;-77
2024/01/28 12:13:09;;;;;;;8.65;4.72;;;10.80;99.90;;;;;;6100577;23;20071;-77
2024/01/28 12:15:35;;;;;;;9.60;4.60;;;10.80;99.90;;;;;;6126120;23;20025;-77
2024/01/28 12:18:06;;;;;;;7.72;4.15;;;11.00;99.90;;;;;;6125425;23;20014;-77
2024/01/28 12:20:42;;;;;;;6.47;4.38;;;11.10;99.90;;;;;;6101738;23;20451;-78
2024/01/28 12:23:18;;;;;;;10.43;4.82;;;11.40;99.90;;;;;;6099153;23;20018;-78
2024/01/28 12:25:44;;;;;;;6.63;4.15;;;11.80;99.90;;;;;;6099225;23;20013;-78
2024/01/28 12:28:14;;;;;;;8.27;4.40;;;12.10;99.90;;;;;;6123494;23;20017;-78
2024/01/28 12:30:45;;;;;;;8.00;4.90;;;12.60;99.90;;;;;;6099683;23;20013;-78
2024/01/28 12:33:18;;;;;;;7.50;4.03;;;12.90;99.90;;;;;;6098087;23;20025;-76
2024/01/28 12:35:44;;;;;;;7.25;4.47;;;13.00;99.90;;;;;;6099573;23;20013;-77